createdAt,value
2018-07-20T00:00:18.877Z,99234.89
2018-07-20T00:02:47.421Z,99230.51
2018-07-20T00:05:17.360Z,99231.99
2018-07-20T00:07:46.006Z,99228.12
2018-07-20T00:10:14.581Z,99225.16
2018-07-20T00:12:43.095Z,99218.99
2018-07-20T00:15:11.639Z,99220.31
2018-07-20T00:17:41.426Z,99214.86
2018-07-20T00:20:10.813Z,99215.84
2018-07-20T00:22:40.572Z,99216.97
2018-07-20T00:25:10.713Z,99221.08
2018-07-20T00:27:39.216Z,99211.31
2018-07-20T00:30:08.551Z,99211.95
2018-07-20T00:32:40.089Z,99207.82
2018-07-20T00:35:08.657Z,99211.03
2018-07-20T00:37:38.397Z,99204.95
2018-07-20T00:40:07.052Z,99197.52
2018-07-20T00:42:35.560Z,99193.34
2018-07-20T00:45:04.186Z,99199.90
2018-07-20T00:47:32.705Z,99197.77
2018-07-20T00:50:02.939Z,99198.68
2018-07-20T00:52:31.904Z,99197.85
2018-07-20T00:55:01.400Z,99198.13
2018-07-20T00:57:30.124Z,99197.22
2018-07-20T00:59:58.985Z,99196.88
2018-07-20T01:02:27.749Z,99197.44
2018-07-20T01:04:56.992Z,99193.59
2018-07-20T01:07:26.750Z,99197.98
2018-07-20T01:09:55.308Z,99197.08
2018-07-20T01:12:23.820Z,99194.23
2018-07-20T01:14:52.500Z,99191.84
2018-07-20T01:17:21.441Z,99192.05
2018-07-20T01:19:49.984Z,99195.34
2018-07-20T01:22:21.861Z,99191.36
2018-07-20T01:24:50.396Z,99194.77
2018-07-20T01:27:19.410Z,99196.23
2018-07-20T01:29:47.993Z,99201.13
2018-07-20T01:32:16.756Z,99193.03
2018-07-20T01:34:45.943Z,99196.59
2018-07-20T01:37:14.552Z,99193.75
2018-07-20T01:39:43.081Z,99195.83
2018-07-20T01:42:12.352Z,99191.22
2018-07-20T01:44:40.872Z,99200.92
2018-07-20T01:47:09.428Z,99198.09
2018-07-20T01:49:37.953Z,99194.02
2018-07-20T01:52:12.910Z,99192.09
2018-07-20T01:54:42.424Z,99193.72
2018-07-20T01:57:11.008Z,99192.20
2018-07-20T01:59:39.708Z,99188.45
2018-07-20T02:02:08.269Z,99199.70
2018-07-20T02:04:36.844Z,99189.23
2018-07-20T02:07:05.477Z,99186.98
2018-07-20T02:09:34.281Z,99187.09
2018-07-20T02:12:12.384Z,99185.54
2018-07-20T02:14:47.772Z,99179.47
2018-07-20T02:17:21.947Z,99171.74
2018-07-20T02:19:50.895Z,99174.58
2018-07-20T02:22:19.472Z,99172.22
2018-07-20T02:24:47.999Z,99175.83
2018-07-20T02:27:16.555Z,99169.24
2018-07-20T02:29:45.117Z,99170.33
2018-07-20T02:32:13.676Z,99171.13
2018-07-20T02:34:42.585Z,99175.33
2018-07-20T02:37:11.201Z,99166.59
2018-07-20T02:39:39.728Z,99169.66
2018-07-20T02:42:08.333Z,99164.44
2018-07-20T02:44:36.894Z,99170.48
2018-07-20T02:47:05.461Z,99165.17
2018-07-20T02:49:34.118Z,99171.79
2018-07-20T02:52:02.681Z,99172.06
2018-07-20T02:54:31.213Z,99172.80
2018-07-20T02:56:59.799Z,99173.94
2018-07-20T02:59:28.322Z,99178.06
2018-07-20T03:01:56.920Z,99175.27
2018-07-20T03:04:25.455Z,99173.93
2018-07-20T03:06:54.049Z,99174.14
2018-07-20T03:09:22.605Z,99166.16
2018-07-20T03:11:51.181Z,99164.21
2018-07-20T03:14:19.708Z,99167.29
2018-07-20T03:16:48.271Z,99158.02
2018-07-20T03:19:16.794Z,99158.84
2018-07-20T03:21:45.344Z,99161.88
2018-07-20T03:24:13.864Z,99162.09
2018-07-20T03:26:42.932Z,99162.39
2018-07-20T03:29:11.496Z,99153.90
2018-07-20T03:31:40.097Z,99156.66
2018-07-20T03:34:08.749Z,99155.56
2018-07-20T03:36:38.104Z,99163.15
2018-07-20T03:39:08.461Z,99157.69
2018-07-20T03:41:37.564Z,99153.77
2018-07-20T03:44:06.373Z,99158.44
2018-07-20T03:46:34.912Z,99153.81
2018-07-20T03:49:03.541Z,99153.25
2018-07-20T03:51:32.401Z,99156.22
2018-07-20T03:54:00.973Z,99150.80
2018-07-20T03:56:29.540Z,99146.84
2018-07-20T03:58:58.117Z,99145.88
2018-07-20T04:01:26.658Z,99147.59
2018-07-20T04:03:55.221Z,99149.23
2018-07-20T04:06:23.800Z,99138.70
2018-07-20T04:08:52.361Z,99142.50
2018-07-20T04:11:20.879Z,99139.11
2018-07-20T04:13:49.442Z,99144.45
2018-07-20T04:16:17.969Z,99136.73
2018-07-20T04:18:46.527Z,99132.63
2018-07-20T04:21:15.895Z,99136.04
2018-07-20T04:23:44.455Z,99128.29
2018-07-20T04:26:13.131Z,99131.77
2018-07-20T04:28:41.693Z,99132.36
2018-07-20T04:31:10.216Z,99129.45
2018-07-20T04:33:38.781Z,99127.66
2018-07-20T04:36:07.385Z,99126.77
2018-07-20T04:38:36.024Z,99132.09
2018-07-20T04:41:04.542Z,99139.58
2018-07-20T04:43:33.103Z,99133.22
2018-07-20T04:46:01.649Z,99138.59
2018-07-20T04:48:30.218Z,99136.36
2018-07-20T04:50:58.760Z,99141.53
2018-07-20T04:53:27.311Z,99140.70
2018-07-20T04:55:55.844Z,99144.48
2018-07-20T04:58:24.424Z,99137.42
2018-07-20T05:00:53.009Z,99139.86
2018-07-20T05:03:21.600Z,99142.08
2018-07-20T05:05:50.145Z,99134.75
2018-07-20T05:08:18.725Z,99141.02
2018-07-20T05:10:47.255Z,99135.00
2018-07-20T05:13:15.800Z,99137.17
2018-07-20T05:15:44.464Z,99135.06
2018-07-20T05:18:13.240Z,99135.23
2018-07-20T05:20:41.784Z,99137.20
2018-07-20T05:23:10.336Z,99135.01
2018-07-20T05:25:38.858Z,99134.64
2018-07-20T05:28:07.433Z,99129.16
2018-07-20T05:30:35.956Z,99129.55
2018-07-20T05:33:04.549Z,99129.59
2018-07-20T05:35:33.105Z,99125.86
2018-07-20T05:38:03.025Z,99134.75
2018-07-20T05:40:31.551Z,99125.92
2018-07-20T05:43:00.050Z,99122.05
2018-07-20T05:45:28.572Z,99130.96
2018-07-20T05:47:57.072Z,99133.76
2018-07-20T05:50:25.604Z,99128.70
2018-07-20T05:52:56.070Z,99129.88
2018-07-20T05:55:24.731Z,99127.09
2018-07-20T05:57:53.323Z,99125.39
2018-07-20T06:00:21.865Z,99124.12
2018-07-20T06:02:50.375Z,99127.16
2018-07-20T06:05:18.928Z,99122.46
2018-07-20T06:07:47.479Z,99126.33
2018-07-20T06:10:16.047Z,99133.52
2018-07-20T06:12:44.565Z,99131.97
2018-07-20T06:15:13.084Z,99127.77
2018-07-20T06:17:41.572Z,99129.16
2018-07-20T06:20:10.737Z,99130.86
2018-07-20T06:22:39.683Z,99122.49
2018-07-20T06:25:08.356Z,99124.48
2018-07-20T06:27:36.885Z,99124.37
2018-07-20T06:30:06.663Z,99123.80
2018-07-20T06:32:35.173Z,99118.55
2018-07-20T06:35:04.227Z,99119.25
2018-07-20T06:37:33.192Z,99119.31
2018-07-20T06:40:02.572Z,99121.16
2018-07-20T06:42:31.105Z,99117.54
2018-07-20T06:45:01.400Z,99115.20
2018-07-20T06:47:29.945Z,99116.21
2018-07-20T06:49:58.502Z,99113.61
2018-07-20T06:52:27.036Z,99119.28
2018-07-20T06:54:55.614Z,99112.97
2018-07-20T06:57:24.148Z,99114.47
2018-07-20T06:59:52.716Z,99114.94
2018-07-20T07:02:21.243Z,99109.61
2018-07-20T07:04:49.812Z,99110.56
2018-07-20T07:07:21.417Z,99118.75
2018-07-20T07:09:51.068Z,99114.58
2018-07-20T07:12:19.663Z,99119.19
2018-07-20T07:14:48.431Z,99114.84
2018-07-20T07:17:16.964Z,99120.88
2018-07-20T07:19:45.527Z,99124.66
2018-07-20T07:22:14.402Z,99121.06
2018-07-20T07:24:42.943Z,99119.69
2018-07-20T07:27:11.525Z,99125.69
2018-07-20T07:29:40.101Z,99117.64
2018-07-20T07:32:08.650Z,99113.97
2018-07-20T07:34:37.273Z,99115.52
2018-07-20T07:37:05.913Z,99106.88
2018-07-20T07:39:34.440Z,99107.22
2018-07-20T07:42:03.055Z,99109.03
2018-07-20T07:44:31.608Z,99108.48
2018-07-20T07:47:00.189Z,99107.09
2018-07-20T07:49:28.713Z,99105.88
2018-07-20T07:51:57.344Z,99113.56
2018-07-20T07:54:25.877Z,99109.84
2018-07-20T07:56:54.793Z,99114.66
2018-07-20T07:59:24.143Z,99108.75
2018-07-20T08:01:52.748Z,99103.66
2018-07-20T08:04:21.528Z,99107.66
2018-07-20T08:06:50.241Z,99102.50
2018-07-20T08:09:19.932Z,99101.09
2018-07-20T08:11:49.096Z,99104.80
2018-07-20T08:14:18.339Z,99098.62
2018-07-20T08:16:47.502Z,99100.33
2018-07-20T08:19:16.043Z,99094.97
2018-07-20T08:21:44.609Z,99098.92
2018-07-20T08:24:13.124Z,99097.58
2018-07-20T08:26:41.700Z,99097.48
2018-07-20T08:29:10.236Z,99099.95
2018-07-20T08:31:40.322Z,99095.67
2018-07-20T08:34:08.952Z,99101.15
2018-07-20T08:36:37.508Z,99092.70
2018-07-20T08:39:08.384Z,99094.77
2018-07-20T08:41:37.018Z,99098.33
2018-07-20T08:44:05.557Z,99093.59
2018-07-20T08:46:34.173Z,99089.52
2018-07-20T08:49:02.713Z,99088.75
2018-07-20T08:51:31.284Z,99083.95
2018-07-20T08:53:59.871Z,99088.03
2018-07-20T08:56:28.488Z,99086.50
2018-07-20T08:58:57.066Z,99082.00
2018-07-20T09:01:25.653Z,99084.73
2018-07-20T09:03:54.188Z,99080.33
2018-07-20T09:06:22.753Z,99085.87
2018-07-20T09:08:51.286Z,99083.05
2018-07-20T09:11:20.273Z,99077.52
2018-07-20T09:13:48.963Z,99076.56
2018-07-20T09:16:18.238Z,99071.36
2018-07-20T09:18:48.608Z,99067.86
2018-07-20T09:21:17.225Z,99066.45
2018-07-20T09:23:45.777Z,99068.59
2018-07-20T09:26:22.276Z,99065.96
2018-07-20T09:28:50.958Z,99071.45
2018-07-20T09:31:20.419Z,99067.19
2018-07-20T09:33:48.967Z,99077.63
2018-07-20T09:36:17.593Z,99074.61
2018-07-20T09:38:46.200Z,99080.43
2018-07-20T09:41:14.750Z,99079.80
2018-07-20T09:43:43.337Z,99071.98
2018-07-20T09:46:11.876Z,99077.16
2018-07-20T09:48:40.441Z,99071.44
2018-07-20T09:51:09.020Z,99066.13
2018-07-20T09:53:42.706Z,99062.63
2018-07-20T09:56:11.667Z,99074.62
2018-07-20T09:58:40.249Z,99067.20
2018-07-20T10:01:08.797Z,99065.44
2018-07-20T10:03:37.669Z,99059.76
2018-07-20T10:06:06.285Z,99062.33
2018-07-20T10:08:34.856Z,99057.52
2018-07-20T10:11:03.422Z,99054.64
2018-07-20T10:13:32.233Z,99053.15
2018-07-20T10:16:02.234Z,99045.74
2018-07-20T10:18:30.816Z,99041.56
2018-07-20T10:20:59.578Z,99039.17
2018-07-20T10:23:28.201Z,99043.11
2018-07-20T10:25:56.745Z,99037.72
2018-07-20T10:28:25.348Z,99039.69
2018-07-20T10:30:54.013Z,99037.31
2018-07-20T10:33:22.624Z,99035.51
2018-07-20T10:35:53.123Z,99037.55
2018-07-20T10:38:21.800Z,99041.09
2018-07-20T10:40:50.653Z,99035.22
2018-07-20T10:43:20.411Z,99033.16
2018-07-20T10:45:49.032Z,99029.04
2018-07-20T10:48:17.662Z,99014.03
2018-07-20T10:50:46.204Z,99014.72
2018-07-20T10:53:14.968Z,99014.12
2018-07-20T10:55:43.519Z,99017.14
2018-07-20T10:58:12.229Z,99025.44
2018-07-20T11:00:40.802Z,99014.34
2018-07-20T11:03:10.333Z,99175.64
2018-07-20T11:05:38.877Z,99019.50
2018-07-20T11:08:07.454Z,99334.95
2018-07-20T11:10:35.992Z,99325.25
2018-07-20T11:13:07.086Z,100255.93
2018-07-20T11:15:35.626Z,99538.03
2018-07-20T11:18:04.205Z,99447.70
2018-07-20T11:20:32.794Z,99389.20
2018-07-20T11:23:01.362Z,99326.91
2018-07-20T11:25:35.644Z,99291.70
2018-07-20T11:28:04.451Z,99303.88
2018-07-20T11:30:32.981Z,99272.78
2018-07-20T11:33:01.830Z,99258.95
2018-07-20T11:35:30.383Z,99133.45
2018-07-20T11:37:59.021Z,99214.94
2018-07-20T11:40:27.829Z,99195.23
2018-07-20T11:42:57.430Z,99196.95
2018-07-20T11:45:29.931Z,98997.69
2018-07-20T11:48:02.111Z,99011.53
2018-07-20T11:50:31.728Z,99007.84
2018-07-20T11:53:00.680Z,99006.11
2018-07-20T11:55:30.596Z,99003.23
2018-07-20T11:58:00.309Z,98998.48
2018-07-20T12:00:29.931Z,98991.77
2018-07-20T12:02:59.613Z,98993.94
2018-07-20T12:05:29.250Z,98985.31
2018-07-20T12:07:57.780Z,98982.25
2018-07-20T12:10:27.479Z,98979.14
2018-07-20T12:12:56.121Z,98979.81
2018-07-20T12:15:26.444Z,98979.00
2018-07-20T12:17:56.164Z,98971.44
2018-07-20T12:20:26.788Z,98966.30
2018-07-20T12:22:56.368Z,98969.21
2018-07-20T12:25:27.152Z,98957.94
2018-07-20T12:27:55.745Z,98960.66
2018-07-20T12:30:24.983Z,98964.43
2018-07-20T12:32:54.692Z,98952.33
2018-07-20T12:35:24.271Z,98950.36
2018-07-20T12:37:53.474Z,98965.16
2018-07-20T12:40:23.027Z,98956.13
2018-07-20T12:42:52.328Z,98961.84
2018-07-20T12:45:22.107Z,98960.30
2018-07-20T12:47:50.642Z,98966.57
2018-07-20T12:50:19.369Z,98970.58
2018-07-20T12:52:48.221Z,98977.45
2018-07-20T12:55:17.875Z,98988.84
2018-07-20T12:57:47.501Z,98996.73
2018-07-20T13:00:17.253Z,98997.08
2018-07-20T13:02:46.783Z,98996.20
2018-07-20T13:05:16.191Z,98992.66
2018-07-20T13:07:47.803Z,98993.09
2018-07-20T13:10:17.099Z,99005.48
2018-07-20T13:12:47.688Z,98993.63
2018-07-20T13:15:17.428Z,98993.13
2018-07-20T13:17:46.171Z,98981.02
2018-07-20T13:20:15.821Z,98970.34
2018-07-20T13:22:45.129Z,98980.72
2018-07-20T13:25:15.166Z,98979.58
2018-07-20T13:27:43.725Z,98972.23
2018-07-20T13:30:12.349Z,98970.56
2018-07-20T13:32:41.257Z,98974.33
2018-07-20T13:35:09.850Z,98969.05
2018-07-20T13:37:38.485Z,98971.28
2018-07-20T13:40:07.712Z,98979.48
2018-07-20T13:42:36.256Z,98978.91
2018-07-20T13:45:05.413Z,98974.84
2018-07-20T13:47:33.949Z,98962.70
2018-07-20T13:50:02.525Z,98964.59
2018-07-20T13:52:31.051Z,98965.34
2018-07-20T13:54:59.611Z,98963.89
2018-07-20T13:57:28.824Z,98959.22
2018-07-20T13:59:57.386Z,98952.41
2018-07-20T14:02:27.249Z,98951.63
2018-07-20T14:04:55.821Z,98954.72
2018-07-20T14:07:24.423Z,98947.08
2018-07-20T14:09:52.920Z,98952.02
2018-07-20T14:12:29.321Z,98941.84
2018-07-20T14:14:58.881Z,98939.48
2018-07-20T14:17:27.790Z,98943.34
2018-07-20T14:19:56.292Z,98935.22
2018-07-20T14:22:24.844Z,98933.14
2018-07-20T14:24:53.349Z,98931.70
2018-07-20T14:27:21.929Z,98921.88
2018-07-20T14:29:50.421Z,98922.34
2018-07-20T14:32:18.989Z,98918.36
2018-07-20T14:34:47.649Z,98912.64
2018-07-20T14:37:16.523Z,98916.32
2018-07-20T14:39:45.546Z,98915.91
2018-07-20T14:42:14.785Z,98910.87
2018-07-20T14:44:43.295Z,98910.09
2018-07-20T14:47:11.933Z,98908.81
2018-07-20T14:49:40.805Z,98907.73
2018-07-20T14:52:09.461Z,98909.34
2018-07-20T14:54:38.134Z,98905.26
2018-07-20T14:57:07.000Z,98903.91
2018-07-20T14:59:36.018Z,98902.07
2018-07-20T15:02:04.649Z,98899.95
2018-07-20T15:04:33.189Z,98893.84
2018-07-20T15:07:02.569Z,98895.32
2018-07-20T15:09:31.168Z,98885.77
2018-07-20T15:11:59.649Z,98893.53
2018-07-20T15:14:30.874Z,98886.98
2018-07-20T15:17:01.767Z,98886.95
2018-07-20T15:19:32.892Z,98878.59
2018-07-20T15:22:01.454Z,98880.66
2018-07-20T15:24:29.973Z,98876.83
2018-07-20T15:26:59.144Z,98873.77
2018-07-20T15:29:27.653Z,98876.07
2018-07-20T15:31:56.249Z,98869.09
2018-07-20T15:34:24.741Z,98859.15
2018-07-20T15:36:53.622Z,98863.88
2018-07-20T15:39:22.459Z,98868.09
2018-07-20T15:41:50.969Z,98868.17
2018-07-20T15:44:19.688Z,98868.48
2018-07-20T15:46:48.546Z,98877.86
2018-07-20T15:49:17.110Z,98862.86
2018-07-20T15:54:14.801Z,98855.61
2018-07-20T15:56:43.360Z,98854.69
2018-07-20T15:59:11.866Z,98851.63
2018-07-20T16:01:40.473Z,98847.61
2018-07-20T16:04:09.169Z,98837.23
2018-07-20T16:06:37.803Z,98841.10
2018-07-20T16:09:09.322Z,98835.03
2018-07-20T16:11:38.120Z,98831.31
2018-07-20T16:14:06.811Z,98835.36
2018-07-20T16:16:35.496Z,98828.54
2018-07-20T16:19:04.155Z,98828.41
2018-07-20T16:21:32.827Z,98821.03
2018-07-20T16:24:01.464Z,98816.15
2018-07-20T16:26:30.985Z,98812.75
2018-07-20T16:28:59.736Z,98808.68
2018-07-20T16:31:28.232Z,98799.63
2018-07-20T16:33:56.896Z,98795.28
2018-07-20T16:36:25.482Z,98790.44
2018-07-20T16:38:54.056Z,98806.19
2018-07-20T16:41:22.560Z,98791.02
2018-07-20T16:43:51.116Z,98795.02
2018-07-20T16:46:20.034Z,98792.95
2018-07-20T16:48:48.596Z,98787.61
2018-07-20T16:51:17.969Z,98797.76
2018-07-20T16:53:46.577Z,98800.50
2018-07-20T16:56:15.085Z,98801.70
2018-07-20T16:58:43.737Z,98795.91
2018-07-20T17:01:12.470Z,98798.89
2018-07-20T17:03:41.018Z,98807.09
2018-07-20T17:06:09.753Z,98799.38
2018-07-20T17:08:38.669Z,98800.05
2018-07-20T17:11:08.097Z,98800.97
2018-07-20T17:13:36.628Z,98804.19
2018-07-20T17:16:05.466Z,98806.77
2018-07-20T17:18:34.129Z,98805.19
2018-07-20T17:21:04.082Z,98802.88
2018-07-20T17:23:33.212Z,98796.73
2018-07-20T17:26:05.284Z,98798.05
2018-07-20T17:28:33.940Z,98788.56
2018-07-20T17:31:03.104Z,98788.20
2018-07-20T17:33:31.657Z,98803.61
2018-07-20T17:36:03.207Z,98796.28
2018-07-20T17:38:32.232Z,98803.06
2018-07-20T17:41:00.818Z,98797.45
2018-07-20T17:43:29.394Z,98797.07
2018-07-20T17:45:57.920Z,98800.55
2018-07-20T17:48:26.557Z,98806.36
2018-07-20T17:50:55.636Z,98811.14
2018-07-20T17:53:24.246Z,98801.50
2018-07-20T17:55:53.079Z,98809.06
2018-07-20T17:58:22.181Z,98794.05
2018-07-20T18:00:51.001Z,98809.56
2018-07-20T18:03:19.661Z,98805.19
2018-07-20T18:05:48.302Z,98811.16
2018-07-20T18:08:16.881Z,98811.39
2018-07-20T18:10:45.429Z,98815.98
2018-07-20T18:13:14.009Z,98818.76
2018-07-20T18:15:42.591Z,98806.11
2018-07-20T18:18:11.189Z,98806.56
2018-07-20T18:20:42.091Z,98804.95
2018-07-20T18:23:10.640Z,98808.93
2018-07-20T18:25:39.214Z,98805.78
2018-07-20T18:28:09.567Z,98809.10
2018-07-20T18:30:38.622Z,98805.75
2018-07-20T18:33:07.264Z,98806.55
2018-07-20T18:35:36.083Z,98805.19
2018-07-20T18:38:06.097Z,98808.73
2018-07-20T18:40:34.773Z,98802.12
2018-07-20T18:43:06.762Z,98809.53
2018-07-20T18:45:35.572Z,98813.26
2018-07-20T18:48:08.807Z,98809.06
2018-07-20T18:52:32.693Z,98814.48
2018-07-20T18:55:02.102Z,98810.80
2018-07-20T18:57:33.755Z,98809.98
2018-07-20T19:00:04.220Z,98807.24
2018-07-20T19:02:34.656Z,98806.13
2018-07-20T19:05:04.284Z,98814.33
2018-07-20T19:07:34.489Z,98812.59
2018-07-20T19:10:04.899Z,98811.59
2018-07-20T19:12:40.188Z,98811.09
2018-07-20T19:15:10.417Z,98813.17
2018-07-20T19:17:38.996Z,98808.11
2018-07-20T19:20:07.621Z,98811.95
2018-07-20T19:22:36.156Z,98810.61
2018-07-20T19:25:06.475Z,98810.26
2018-07-20T19:27:35.073Z,98811.08
2018-07-20T19:30:03.697Z,98808.09
2018-07-20T19:32:36.777Z,98815.02
2018-07-20T19:35:06.615Z,98809.82
2018-07-20T19:37:36.755Z,98814.26
2018-07-20T19:40:06.060Z,98813.00
2018-07-20T19:42:34.668Z,98811.14
2018-07-20T19:45:04.957Z,98805.25
2018-07-20T19:47:35.716Z,98805.96
2018-07-20T19:50:04.617Z,98801.48
2018-07-20T19:52:33.940Z,98802.92
2018-07-20T19:55:03.969Z,98804.98
2018-07-20T19:57:35.906Z,98805.67
2018-07-20T20:00:06.377Z,98808.98
2018-07-20T20:02:36.448Z,98797.68
2018-07-20T20:05:07.146Z,98792.54
2018-07-20T20:07:37.047Z,98795.11
2018-07-20T20:10:07.621Z,98787.31
2018-07-20T20:12:36.269Z,98784.50
2018-07-20T20:15:06.573Z,98786.55
2018-07-20T20:17:36.061Z,98791.33
2018-07-20T20:20:08.319Z,98791.61
2018-07-20T20:22:38.188Z,98790.86
2018-07-20T20:25:06.749Z,98792.97
2018-07-20T20:27:35.306Z,98791.58
2018-07-20T20:30:03.966Z,98791.77
2018-07-20T20:32:32.483Z,98794.78
2018-07-20T20:35:01.017Z,98796.89
2018-07-20T20:37:29.557Z,98797.08
2018-07-20T20:39:58.862Z,98797.41
2018-07-20T20:42:28.282Z,98794.84
2018-07-20T20:44:56.805Z,98792.67
2018-07-20T20:47:25.348Z,98796.89
2018-07-20T20:49:53.847Z,98804.98
2018-07-20T20:52:23.102Z,98809.08
2018-07-20T20:54:51.656Z,98805.06
2018-07-20T20:57:22.104Z,98797.46
2018-07-20T20:59:51.870Z,98804.55
2018-07-20T21:02:20.746Z,98798.30
2018-07-20T21:04:49.261Z,98798.47
2018-07-20T21:07:17.809Z,98801.28
2018-07-20T21:09:46.373Z,98799.75
2018-07-20T21:12:15.002Z,98797.89
2018-07-20T21:14:44.894Z,98799.23
2018-07-20T21:17:14.566Z,98795.67
2018-07-20T21:19:44.564Z,98789.28
2018-07-20T21:22:14.326Z,98789.47
2018-07-20T21:24:47.970Z,98786.30
2018-07-20T21:27:21.540Z,98785.73
2018-07-20T21:29:51.827Z,98786.65
2018-07-20T21:32:23.945Z,98785.19
2018-07-20T21:34:53.268Z,98791.55
2018-07-20T21:37:22.977Z,98800.75
2018-07-20T21:39:51.476Z,98800.61
2018-07-20T21:42:20.073Z,98800.84
2018-07-20T21:44:49.373Z,98797.19
2018-07-20T21:47:19.349Z,98802.46
2018-07-20T21:49:49.390Z,98803.65
2018-07-20T21:52:18.665Z,98801.48
2018-07-20T21:54:49.353Z,98805.16
2018-07-20T21:57:19.404Z,98801.59
2018-07-20T21:59:49.036Z,98802.86
2018-07-20T22:02:18.597Z,98793.10
2018-07-20T22:04:48.395Z,98792.16
2018-07-20T22:07:17.508Z,98792.31
2018-07-20T22:09:47.143Z,98793.65
2018-07-20T22:12:16.805Z,98798.81
2018-07-20T22:14:51.518Z,98797.33
2018-07-20T22:17:26.368Z,98794.98
2018-07-20T22:19:58.927Z,98786.78
2018-07-20T22:22:33.713Z,98781.98
2018-07-20T22:25:09.626Z,98784.41
2018-07-20T22:27:44.251Z,98783.89
2018-07-20T22:30:18.519Z,98787.44
2018-07-20T22:32:49.280Z,98788.90
2018-07-20T22:35:23.177Z,98786.77
2018-07-20T22:37:56.063Z,98795.27
2018-07-20T22:40:25.385Z,98791.64
2018-07-20T22:42:55.289Z,98790.15
2018-07-20T22:45:24.341Z,98787.19
2018-07-20T22:47:59.269Z,98788.52
2018-07-20T22:50:29.052Z,98792.17
2018-07-20T22:53:01.150Z,98791.44
2018-07-20T22:55:35.318Z,98789.04
2018-07-20T22:58:06.968Z,98786.50
2018-07-20T23:00:39.315Z,98791.95
2018-07-20T23:03:11.103Z,98789.77
2018-07-20T23:05:42.837Z,98782.22
2018-07-20T23:08:14.689Z,98786.45
2018-07-20T23:10:45.347Z,98790.21
2018-07-20T23:13:15.733Z,98789.48
2018-07-20T23:15:46.940Z,98797.00
2018-07-20T23:18:18.688Z,98792.23
2018-07-20T23:20:49.156Z,98788.66
2018-07-20T23:23:21.960Z,98792.48
2018-07-20T23:25:52.783Z,98791.52
2018-07-20T23:28:24.373Z,98783.03
2018-07-20T23:30:56.761Z,98782.59
2018-07-20T23:33:30.375Z,98790.95
2018-07-20T23:36:01.521Z,98787.67
2018-07-20T23:38:31.740Z,98788.50
2018-07-20T23:41:03.412Z,98789.09
2018-07-20T23:43:35.411Z,98784.96
2018-07-20T23:46:05.800Z,98790.86
2018-07-20T23:48:38.304Z,98792.62
2018-07-20T23:51:10.889Z,98789.73
2018-07-20T23:53:45.219Z,98787.92
2018-07-20T23:56:18.427Z,98791.16
2018-07-20T23:58:51.917Z,98791.20
